createdAt,value
2023-04-15T00:01:04.854Z,99071.16
2023-04-15T00:03:32.168Z,99056.78
2023-04-15T00:06:00.137Z,99051.00
2023-04-15T00:08:27.521Z,99054.91
2023-04-15T00:10:54.491Z,99061.53
2023-04-15T00:13:21.400Z,99060.53
2023-04-15T00:15:48.363Z,99062.81
2023-04-15T00:18:15.408Z,99065.28
2023-04-15T00:20:44.314Z,99061.13
2023-04-15T00:23:11.377Z,99060.78
2023-04-15T00:25:38.857Z,99062.00
2023-04-15T00:28:05.781Z,99072.69
2023-04-15T00:30:32.941Z,99070.84
2023-04-15T00:33:02.465Z,99069.69
2023-04-15T00:35:29.640Z,99072.09
2023-04-15T00:37:56.617Z,99073.91
2023-04-15T00:40:28.044Z,99072.84
2023-04-15T00:42:55.406Z,99073.41
2023-04-15T00:45:22.534Z,99076.47
2023-04-15T00:47:49.939Z,99069.72
2023-04-15T00:50:16.843Z,99064.84
2023-04-15T00:52:44.210Z,99068.56
2023-04-15T00:55:11.543Z,99068.00
2023-04-15T00:57:39.889Z,99069.91
2023-04-15T01:00:11.962Z,99071.78
2023-04-15T01:02:39.975Z,99061.72
2023-04-15T01:05:07.968Z,99058.28
2023-04-15T01:07:35.167Z,99054.84
2023-04-15T01:10:03.959Z,99051.00
2023-04-15T01:12:33.354Z,99051.75
2023-04-15T01:15:00.709Z,99054.63
2023-04-15T01:17:27.950Z,99056.88
2023-04-15T01:19:58.202Z,99054.75
2023-04-15T01:22:26.976Z,99057.44
2023-04-15T01:25:11.853Z,99046.72
2023-04-15T01:27:41.643Z,99051.47
2023-04-15T01:30:09.544Z,99056.00
2023-04-15T01:32:37.160Z,99063.78
2023-04-15T01:35:04.311Z,99061.38
2023-04-15T01:37:31.563Z,99066.69
2023-04-15T01:39:58.469Z,99058.28
2023-04-15T01:42:26.665Z,99069.56
2023-04-15T01:44:54.046Z,99063.84
2023-04-15T01:47:21.125Z,99064.22
2023-04-15T01:49:48.258Z,99060.78
2023-04-15T01:52:15.993Z,99058.09
2023-04-15T01:54:43.022Z,99062.81
2023-04-15T01:57:10.175Z,99063.25
2023-04-15T01:59:37.482Z,99052.16
2023-04-15T02:02:05.730Z,99052.59
2023-04-15T02:04:32.927Z,99052.13
2023-04-15T02:07:00.971Z,99057.75
2023-04-15T02:09:28.176Z,99050.53
2023-04-15T02:11:55.252Z,99042.34
2023-04-15T02:14:22.357Z,99051.00
2023-04-15T02:16:49.444Z,99048.72
2023-04-15T02:19:16.726Z,99049.13
2023-04-15T02:21:43.692Z,99046.06
2023-04-15T02:24:12.597Z,99049.56
2023-04-15T02:26:41.827Z,99050.34
2023-04-15T02:29:08.866Z,99052.06
2023-04-15T02:31:40.725Z,99043.44
2023-04-15T02:34:08.415Z,99042.19
2023-04-15T02:36:35.541Z,99035.44
2023-04-15T02:39:03.317Z,99038.59
2023-04-15T02:41:30.715Z,99042.78
2023-04-15T02:43:58.295Z,99036.66
2023-04-15T02:46:26.253Z,99038.63
2023-04-15T02:48:54.160Z,99034.25
2023-04-15T02:51:23.480Z,99039.25
2023-04-15T02:53:51.127Z,99032.66
2023-04-15T02:56:20.051Z,99035.97
2023-04-15T02:58:50.830Z,99043.97
2023-04-15T03:01:18.172Z,99038.19
2023-04-15T03:03:45.494Z,99033.66
2023-04-15T03:06:12.539Z,99033.72
2023-04-15T03:08:39.408Z,99030.63
2023-04-15T03:11:07.926Z,99028.78
2023-04-15T03:13:36.469Z,99031.91
2023-04-15T03:16:10.854Z,99032.94
2023-04-15T03:18:38.041Z,99032.50
2023-04-15T03:21:05.344Z,99031.09
2023-04-15T03:23:35.797Z,99033.03
2023-04-15T03:26:04.821Z,99032.41
2023-04-15T03:28:33.826Z,99035.16
2023-04-15T03:31:01.699Z,99046.47
2023-04-15T03:33:28.655Z,99035.91
2023-04-15T03:35:55.580Z,99041.47
2023-04-15T03:38:22.595Z,99045.88
2023-04-15T03:40:49.589Z,99043.44
2023-04-15T03:43:16.901Z,99040.88
2023-04-15T03:45:43.963Z,99046.19
2023-04-15T03:48:17.836Z,99036.59
2023-04-15T03:50:46.389Z,99039.06
2023-04-15T03:53:13.417Z,99032.06
2023-04-15T03:55:40.457Z,99027.97
2023-04-15T03:58:07.469Z,99030.22
2023-04-15T04:00:34.474Z,99038.75
2023-04-15T04:03:01.534Z,99035.63
2023-04-15T04:05:28.736Z,99040.75
2023-04-15T04:07:55.604Z,99037.31
2023-04-15T04:10:22.661Z,99036.97
2023-04-15T04:12:49.705Z,99036.41
2023-04-15T04:15:16.779Z,99030.00
2023-04-15T04:17:43.809Z,99037.59
2023-04-15T04:20:11.594Z,99035.97
2023-04-15T04:22:40.245Z,99041.25
2023-04-15T04:25:08.949Z,99043.09
2023-04-15T04:27:36.571Z,99049.25
2023-04-15T04:30:04.050Z,99048.00
2023-04-15T04:32:31.051Z,99051.25
2023-04-15T04:34:58.099Z,99048.56
2023-04-15T04:37:25.322Z,99040.31
2023-04-15T04:39:52.275Z,99047.81
2023-04-15T04:42:19.265Z,99053.50
2023-04-15T04:44:46.627Z,99059.59
2023-04-15T04:47:14.232Z,99064.94
2023-04-15T04:49:41.858Z,99062.47
2023-04-15T04:52:08.960Z,99049.84
2023-04-15T04:54:36.150Z,99057.22
2023-04-15T04:57:03.358Z,99056.59
2023-04-15T04:59:30.373Z,99059.63
2023-04-15T05:01:57.456Z,99060.19
2023-04-15T05:04:24.496Z,99056.69
2023-04-15T05:06:52.018Z,99062.44
2023-04-15T05:09:19.421Z,99055.38
2023-04-15T05:11:46.432Z,99055.25
2023-04-15T05:14:13.458Z,99057.63
2023-04-15T05:16:40.509Z,99059.31
2023-04-15T05:19:08.143Z,99053.81
2023-04-15T05:21:35.889Z,99059.50
2023-04-15T05:24:04.586Z,99060.91
2023-04-15T05:26:31.811Z,99058.94
2023-04-15T05:28:58.929Z,99055.88
2023-04-15T05:31:26.120Z,99063.75
2023-04-15T05:33:53.172Z,99060.50
2023-04-15T05:36:20.161Z,99070.94
2023-04-15T05:38:47.182Z,99060.34
2023-04-15T05:41:18.383Z,99067.69
2023-04-15T05:43:46.770Z,99061.88
2023-04-15T05:46:13.757Z,99075.31
2023-04-15T05:48:40.737Z,99066.06
2023-04-15T05:51:07.660Z,99072.47
2023-04-15T05:53:34.631Z,99076.03
2023-04-15T05:56:01.766Z,99075.44
2023-04-15T05:58:28.768Z,99077.97
2023-04-15T06:00:55.888Z,99076.16
2023-04-15T06:03:23.321Z,99076.88
2023-04-15T06:05:50.333Z,99075.25
2023-04-15T06:08:17.353Z,99079.38
2023-04-15T06:10:44.332Z,99083.28
2023-04-15T06:13:11.274Z,99081.25
2023-04-15T06:15:38.149Z,99084.53
2023-04-15T06:18:05.495Z,99080.25
2023-04-15T06:20:32.914Z,99082.72
2023-04-15T06:22:59.816Z,99089.78
2023-04-15T06:25:26.922Z,99091.91
2023-04-15T06:27:53.902Z,99088.53
2023-04-15T06:30:22.328Z,99095.38
2023-04-15T06:32:50.811Z,99092.50
2023-04-15T06:35:18.052Z,99096.44
2023-04-15T06:37:45.052Z,99097.53
2023-04-15T06:40:13.527Z,99100.31
2023-04-15T06:42:40.909Z,99098.06
2023-04-15T06:45:09.149Z,99096.72
2023-04-15T06:47:36.147Z,99100.69
2023-04-15T06:50:04.215Z,99094.25
2023-04-15T06:52:32.035Z,99098.31
2023-04-15T06:54:59.884Z,99097.16
2023-04-15T06:57:26.833Z,99109.97
2023-04-15T06:59:54.816Z,99114.88
2023-04-15T07:02:22.284Z,99119.50
2023-04-15T07:04:49.348Z,99129.31
2023-04-15T07:07:17.735Z,99129.78
2023-04-15T07:09:45.104Z,99131.25
2023-04-15T07:12:12.410Z,99132.72
2023-04-15T07:14:39.461Z,99134.72
2023-04-15T07:17:07.161Z,99130.03
2023-04-15T07:19:34.243Z,99140.41
2023-04-15T07:22:01.483Z,99137.59
2023-04-15T07:24:28.430Z,99142.28
2023-04-15T07:26:59.468Z,99141.63
2023-04-15T07:29:27.738Z,99142.44
2023-04-15T07:31:54.661Z,99144.19
2023-04-15T07:34:21.707Z,99148.50
2023-04-15T07:36:52.201Z,99147.22
2023-04-15T07:39:19.331Z,99149.72
2023-04-15T07:41:46.796Z,99147.50
2023-04-15T07:44:13.999Z,99151.63
2023-04-15T07:46:41.424Z,99155.47
2023-04-15T07:49:08.440Z,99143.75
2023-04-15T07:51:35.434Z,99148.31
2023-04-15T07:54:03.444Z,99149.97
2023-04-15T07:56:30.469Z,99146.72
2023-04-15T07:58:57.524Z,99148.06
2023-04-15T08:01:24.498Z,99141.72
2023-04-15T08:03:51.818Z,99144.28
2023-04-15T08:06:18.994Z,99157.34
2023-04-15T08:08:45.944Z,99158.72
2023-04-15T08:11:13.497Z,99158.53
2023-04-15T08:13:40.509Z,99161.53
2023-04-15T08:16:24.814Z,99157.06
2023-04-15T08:18:53.394Z,99162.41
2023-04-15T08:21:20.689Z,99158.69
2023-04-15T08:23:52.580Z,99160.16
2023-04-15T08:26:21.178Z,99170.47
2023-04-15T08:28:49.484Z,99173.00
2023-04-15T08:31:18.509Z,99167.00
2023-04-15T08:33:46.195Z,99162.84
2023-04-15T08:36:14.226Z,99171.03
2023-04-15T08:38:41.442Z,99167.53
2023-04-15T08:41:16.657Z,99177.47
2023-04-15T08:43:52.237Z,99172.53
2023-04-15T08:46:19.893Z,99176.31
2023-04-15T08:48:48.757Z,99173.66
2023-04-15T08:51:17.921Z,99175.41
2023-04-15T08:53:46.729Z,99180.78
2023-04-15T08:56:16.041Z,99180.84
2023-04-15T08:58:47.176Z,99183.97
2023-04-15T09:01:14.419Z,99188.09
2023-04-15T09:03:42.401Z,99186.28
2023-04-15T09:06:09.584Z,99188.88
2023-04-15T09:08:36.568Z,99183.38
2023-04-15T09:11:04.156Z,99192.25
2023-04-15T09:13:31.925Z,99190.91
2023-04-15T09:15:58.904Z,99197.72
2023-04-15T09:18:31.006Z,99196.38
2023-04-15T09:21:12.379Z,99199.25
2023-04-15T09:24:01.090Z,99192.94
2023-04-15T09:26:35.929Z,99198.63
2023-04-15T09:29:15.453Z,99200.91
2023-04-15T09:31:43.097Z,99200.03
2023-04-15T09:34:10.572Z,99205.84
2023-04-15T09:36:47.031Z,99203.75
2023-04-15T09:39:15.129Z,99200.91
2023-04-15T09:41:42.110Z,99200.72
2023-04-15T09:44:25.921Z,99199.75
2023-04-15T09:46:52.838Z,99193.00
2023-04-15T09:49:21.204Z,99192.31
2023-04-15T09:52:01.698Z,99184.69
2023-04-15T09:54:39.086Z,99192.56
2023-04-15T09:57:07.927Z,99193.44
2023-04-15T09:59:34.948Z,99194.91
2023-04-15T10:02:06.502Z,99191.00
2023-04-15T10:04:36.954Z,99195.09
2023-04-15T10:07:05.606Z,99189.00
2023-04-15T10:09:33.844Z,99185.97
2023-04-15T10:12:01.455Z,99193.78
2023-04-15T10:14:32.570Z,99186.41
2023-04-15T10:17:02.532Z,99192.84
2023-04-15T10:19:32.052Z,99192.03
2023-04-15T10:21:59.995Z,99196.38
2023-04-15T10:24:28.093Z,99193.56
2023-04-15T10:26:55.745Z,99192.50
2023-04-15T10:29:26.048Z,99189.06
2023-04-15T10:31:56.159Z,99202.47
2023-04-15T10:34:26.910Z,99200.38
2023-04-15T10:36:58.709Z,99207.16
2023-04-15T10:39:35.053Z,99216.00
2023-04-15T10:42:16.847Z,99220.31
2023-04-15T10:44:45.167Z,99225.16
2023-04-15T10:47:14.639Z,99224.44
2023-04-15T10:50:02.015Z,99228.75
2023-04-15T10:52:30.088Z,99232.09
2023-04-15T10:55:24.900Z,99220.69
2023-04-15T10:57:58.898Z,99209.22
2023-04-15T11:00:26.969Z,99196.16
2023-04-15T11:02:58.273Z,99191.72
2023-04-15T11:05:49.654Z,99191.03
2023-04-15T11:08:17.464Z,99196.63
2023-04-15T11:10:44.369Z,99200.03
2023-04-15T11:13:11.600Z,99206.81
2023-04-15T11:15:47.292Z,99194.69
2023-04-15T11:18:26.628Z,99201.78
2023-04-15T11:20:57.553Z,99195.56
2023-04-15T11:23:32.001Z,99194.03
2023-04-15T11:26:00.575Z,99173.50
2023-04-15T11:28:31.509Z,99181.06
2023-04-15T11:30:59.046Z,99178.44
2023-04-15T11:33:26.231Z,99172.66
2023-04-15T11:35:56.915Z,99172.41
2023-04-15T11:38:23.991Z,99166.88
2023-04-15T11:40:52.671Z,99168.78
2023-04-15T11:43:21.821Z,99169.25
2023-04-15T11:45:57.370Z,99169.81
2023-04-15T11:48:35.500Z,99174.88
2023-04-15T11:51:05.086Z,99176.75
2023-04-15T11:53:47.624Z,99174.47
2023-04-15T11:56:19.757Z,99191.09
2023-04-15T11:58:47.255Z,99210.34
2023-04-15T12:01:14.314Z,99238.13
2023-04-15T12:03:44.215Z,99280.06
2023-04-15T12:06:17.121Z,99279.63
2023-04-15T12:09:10.380Z,99270.94
2023-04-15T12:11:38.675Z,99267.38
2023-04-15T12:14:30.717Z,99251.34
2023-04-15T12:17:00.621Z,99259.06
2023-04-15T12:19:36.969Z,99254.88
2023-04-15T12:22:15.850Z,99252.78
2023-04-15T12:24:44.628Z,99260.72
2023-04-15T12:27:12.607Z,99257.97
2023-04-15T12:29:42.252Z,99261.09
2023-04-15T12:32:11.416Z,99284.94
2023-04-15T12:34:49.980Z,99271.00
2023-04-15T12:37:17.882Z,99264.16
2023-04-15T12:39:48.277Z,99256.66
2023-04-15T12:42:16.422Z,99253.56
2023-04-15T12:44:43.433Z,99232.16
2023-04-15T12:47:12.042Z,99207.38
2023-04-15T12:49:39.911Z,99215.41
2023-04-15T12:52:07.131Z,99222.53
2023-04-15T12:54:34.857Z,99205.16
2023-04-15T12:57:05.969Z,99203.72
2023-04-15T12:59:34.039Z,99210.44
2023-04-15T13:02:01.385Z,99216.00
2023-04-15T13:04:31.498Z,99213.81
2023-04-15T13:07:02.373Z,99203.94
2023-04-15T13:09:29.374Z,99200.81
2023-04-15T13:11:56.587Z,99197.09
2023-04-15T13:14:23.593Z,99189.06
2023-04-15T13:16:50.790Z,99188.78
2023-04-15T13:19:17.758Z,99186.97
2023-04-15T13:21:44.785Z,99176.41
2023-04-15T13:24:11.856Z,99170.59
2023-04-15T13:26:38.798Z,99170.13
2023-04-15T13:29:05.881Z,99181.91
2023-04-15T13:31:32.946Z,99190.22
2023-04-15T13:34:00.081Z,99180.63
2023-04-15T13:36:27.637Z,99185.19
2023-04-15T13:38:54.851Z,99185.94
2023-04-15T13:41:22.116Z,99176.28
2023-04-15T13:43:49.174Z,99176.41
2023-04-15T13:46:16.412Z,99176.78
2023-04-15T13:48:43.428Z,99175.78
2023-04-15T13:51:10.639Z,99178.81
2023-04-15T13:53:39.387Z,99160.75
2023-04-15T13:56:08.483Z,99172.31
2023-04-15T13:58:37.006Z,99180.16
2023-04-15T14:01:05.857Z,99189.06
2023-04-15T14:03:35.251Z,99191.38
2023-04-15T14:06:02.437Z,99198.41
2023-04-15T14:08:30.290Z,99209.69
2023-04-15T14:10:57.973Z,99211.97
2023-04-15T14:13:25.382Z,99207.78
2023-04-15T14:15:52.442Z,99219.53
2023-04-15T14:18:19.580Z,99217.25
2023-04-15T14:20:46.996Z,99232.09
2023-04-15T14:23:14.262Z,99222.19
2023-04-15T14:25:41.736Z,99228.81
2023-04-15T14:28:10.047Z,99224.69
2023-04-15T14:30:37.377Z,99225.63
2023-04-15T14:33:04.713Z,99224.41
2023-04-15T14:35:31.834Z,99230.03
2023-04-15T14:38:01.657Z,99239.69
2023-04-15T14:40:28.775Z,99245.44
2023-04-15T14:43:01.717Z,99246.38
2023-04-15T14:45:31.184Z,99247.69
2023-04-15T14:47:59.160Z,99256.09
2023-04-15T14:50:26.075Z,99258.16
2023-04-15T14:52:59.184Z,99261.75
2023-04-15T14:55:26.398Z,99272.75
2023-04-15T14:57:53.575Z,99279.38
2023-04-15T15:00:20.735Z,99280.53
2023-04-15T15:02:47.905Z,99270.09
2023-04-15T15:05:16.618Z,99262.75
2023-04-15T15:07:43.637Z,99268.75
2023-04-15T15:10:10.799Z,99280.19
2023-04-15T15:12:37.715Z,99275.88
2023-04-15T15:15:15.771Z,99280.25
2023-04-15T15:17:51.378Z,99293.78
2023-04-15T15:20:19.597Z,99301.31
2023-04-15T15:22:46.488Z,99313.97
2023-04-15T15:25:13.453Z,99305.22
2023-04-15T15:27:40.678Z,99306.91
2023-04-15T15:30:08.197Z,99304.81
2023-04-15T15:32:35.502Z,99313.28
2023-04-15T15:35:02.653Z,99307.00
2023-04-15T15:37:31.218Z,99310.59
2023-04-15T15:39:58.772Z,99320.28
2023-04-15T15:42:25.839Z,99319.91
2023-04-15T15:44:53.393Z,99315.63
2023-04-15T15:47:22.104Z,99324.19
2023-04-15T15:49:49.268Z,99324.78
2023-04-15T15:52:16.468Z,99322.41
2023-04-15T15:54:43.436Z,99328.56
2023-04-15T15:57:13.503Z,99328.09
2023-04-15T15:59:43.822Z,99333.34
2023-04-15T16:02:12.728Z,99341.75
2023-04-15T16:04:40.688Z,99353.00
2023-04-15T16:07:07.810Z,99353.13
2023-04-15T16:09:34.935Z,99365.66
2023-04-15T16:12:02.342Z,99370.34
2023-04-15T16:14:29.297Z,99376.09
2023-04-15T16:16:56.613Z,99383.78
2023-04-15T16:19:23.634Z,99394.56
2023-04-15T16:21:52.124Z,99396.31
2023-04-15T16:24:19.099Z,99393.16
2023-04-15T16:26:46.183Z,99407.38
2023-04-15T16:29:13.096Z,99403.97
2023-04-15T16:31:41.633Z,99404.13
2023-04-15T16:34:08.911Z,99412.19
2023-04-15T16:36:36.288Z,99412.53
2023-04-15T16:39:03.492Z,99415.50
2023-04-15T16:41:32.102Z,99402.84
2023-04-15T16:44:01.317Z,99411.47
2023-04-15T16:46:29.863Z,99421.09
2023-04-15T16:48:57.116Z,99420.91
2023-04-15T16:51:24.080Z,99426.47
2023-04-15T16:53:51.327Z,99429.47
2023-04-15T16:56:18.406Z,99426.47
2023-04-15T16:58:45.385Z,99421.53
2023-04-15T17:01:12.339Z,99428.16
2023-04-15T17:03:40.302Z,99435.22
2023-04-15T17:06:07.406Z,99433.00
2023-04-15T17:08:34.511Z,99432.78
2023-04-15T17:11:01.541Z,99423.06
2023-04-15T17:13:28.490Z,99427.63
2023-04-15T17:15:55.948Z,99432.78
2023-04-15T17:18:23.416Z,99425.91
2023-04-15T17:20:50.283Z,99430.47
2023-04-15T17:23:17.361Z,99433.81
2023-04-15T17:25:44.297Z,99435.34
2023-04-15T17:28:11.304Z,99441.16
2023-04-15T17:30:38.318Z,99443.38
2023-04-15T17:33:56.163Z,99441.56
2023-04-15T17:35:53.679Z,99443.88
2023-04-15T17:38:20.716Z,99442.00
2023-04-15T17:40:47.691Z,99458.41
2023-04-15T17:43:14.832Z,99462.59
2023-04-15T17:45:41.908Z,99473.59
2023-04-15T17:48:08.867Z,99473.91
2023-04-15T17:50:36.131Z,99481.31
2023-04-15T17:53:03.175Z,99484.53
2023-04-15T17:55:31.707Z,99484.53
2023-04-15T17:57:59.326Z,99497.84
2023-04-15T18:00:26.278Z,99500.97
2023-04-15T18:02:53.400Z,99504.47
2023-04-15T18:05:21.552Z,99510.66
2023-04-15T18:07:49.261Z,99513.56
2023-04-15T18:10:16.328Z,99514.31
2023-04-15T18:12:43.438Z,99520.78
2023-04-15T18:15:11.323Z,99534.44
2023-04-15T18:17:38.371Z,99534.44
2023-04-15T18:20:06.185Z,99542.06
2023-04-15T18:22:33.078Z,99545.00
2023-04-15T18:25:04.360Z,99543.78
2023-04-15T18:27:32.663Z,99546.78
2023-04-15T18:29:59.972Z,99556.72
2023-04-15T18:32:31.798Z,99554.44
2023-04-15T18:34:59.431Z,99552.78
2023-04-15T18:37:29.869Z,99557.13
2023-04-15T18:39:57.123Z,99563.66
2023-04-15T18:42:25.547Z,99562.00
2023-04-15T18:44:53.433Z,99567.97
2023-04-15T18:47:20.660Z,99570.44
2023-04-15T18:49:47.823Z,99570.00
2023-04-15T18:52:14.773Z,99579.06
2023-04-15T18:54:41.724Z,99570.41
2023-04-15T18:57:08.796Z,99572.03
2023-04-15T18:59:36.176Z,99582.50
2023-04-15T19:02:06.566Z,99579.56
2023-04-15T19:04:33.826Z,99580.50
2023-04-15T19:07:02.053Z,99585.59
2023-04-15T19:09:29.558Z,99577.47
2023-04-15T19:11:57.107Z,99585.59
2023-04-15T19:14:24.264Z,99582.84
2023-04-15T19:16:51.447Z,99580.91
2023-04-15T19:19:18.551Z,99590.78
2023-04-15T19:21:47.886Z,99598.69
2023-04-15T19:24:15.029Z,99601.22
2023-04-15T19:26:42.002Z,99599.78
2023-04-15T19:29:09.063Z,99603.06
2023-04-15T19:31:36.100Z,99606.66
2023-04-15T19:34:03.144Z,99618.56
2023-04-15T19:36:30.245Z,99612.78
2023-04-15T19:38:57.321Z,99610.84
2023-04-15T19:41:24.345Z,99613.19
2023-04-15T19:43:51.552Z,99611.19
2023-04-15T19:46:22.204Z,99615.19
2023-04-15T19:48:49.472Z,99621.53
2023-04-15T19:51:16.571Z,99616.47
2023-04-15T19:53:43.858Z,99623.00
2023-04-15T19:56:12.203Z,99626.59
2023-04-15T19:58:39.126Z,99634.06
2023-04-15T20:01:06.422Z,99629.34
2023-04-15T20:03:33.671Z,99629.94
2023-04-15T20:06:00.808Z,99631.16
2023-04-15T20:08:27.896Z,99620.50
2023-04-15T20:10:54.967Z,99622.34
2023-04-15T20:13:22.092Z,99623.28
2023-04-15T20:15:49.152Z,99621.53
2023-04-15T20:18:16.216Z,99627.81
2023-04-15T20:20:43.272Z,99626.50
2023-04-15T20:23:10.249Z,99632.03
2023-04-15T20:25:37.339Z,99640.09
2023-04-15T20:28:04.322Z,99640.06
2023-04-15T20:30:31.410Z,99639.44
2023-04-15T20:32:58.773Z,99637.56
2023-04-15T20:35:28.318Z,99638.81
2023-04-15T20:37:55.268Z,99643.19
2023-04-15T20:40:23.251Z,99649.72
2023-04-15T20:42:50.647Z,99649.72
2023-04-15T20:45:17.734Z,99650.16
2023-04-15T20:47:44.880Z,99648.75
2023-04-15T20:50:12.224Z,99667.16
2023-04-15T20:52:40.328Z,99662.69
2023-04-15T20:55:08.205Z,99659.81
2023-04-15T20:57:35.162Z,99667.63
2023-04-15T21:00:02.162Z,99672.63
2023-04-15T21:02:29.523Z,99676.88
2023-04-15T21:04:56.635Z,99686.91
2023-04-15T21:07:23.633Z,99681.22
2023-04-15T21:09:50.568Z,99685.78
2023-04-15T21:12:17.593Z,99693.44
2023-04-15T21:14:44.703Z,99687.22
2023-04-15T21:17:11.813Z,99703.72
2023-04-15T21:19:39.047Z,99700.50
2023-04-15T21:22:06.081Z,99704.97
2023-04-15T21:24:33.391Z,99705.09
2023-04-15T21:27:02.220Z,99715.09
2023-04-15T21:29:29.603Z,99717.03
2023-04-15T21:31:56.667Z,99714.38
2023-04-15T21:34:23.859Z,99709.44
2023-04-15T21:36:50.884Z,99716.03
2023-04-15T21:39:17.826Z,99719.34
2023-04-15T21:41:44.870Z,99719.97
2023-04-15T21:44:14.442Z,99708.84
2023-04-15T21:46:41.821Z,99709.44
2023-04-15T21:49:12.852Z,99708.84
2023-04-15T21:51:39.752Z,99712.78
2023-04-15T21:54:06.804Z,99713.22
2023-04-15T21:56:34.199Z,99716.72
2023-04-15T21:59:01.433Z,99712.38
2023-04-15T22:01:28.587Z,99716.69
2023-04-15T22:03:55.800Z,99716.09
2023-04-15T22:06:22.887Z,99713.19
2023-04-15T22:08:56.657Z,99718.16
2023-04-15T22:11:28.148Z,99716.28
2023-04-15T22:13:57.474Z,99720.84
2023-04-15T22:16:29.973Z,99721.84
2023-04-15T22:18:57.582Z,99720.59
2023-04-15T22:21:24.549Z,99716.91
2023-04-15T22:23:52.317Z,99706.81
2023-04-15T22:26:19.633Z,99716.09
2023-04-15T22:28:46.628Z,99713.59
2023-04-15T22:31:15.151Z,99716.50
2023-04-15T22:33:43.181Z,99718.19
2023-04-15T22:36:10.142Z,99714.06
2023-04-15T22:38:37.173Z,99716.94
2023-04-15T22:41:04.198Z,99720.84
2023-04-15T22:43:31.275Z,99722.50
2023-04-15T22:45:58.542Z,99724.13
2023-04-15T22:48:25.573Z,99708.25
2023-04-15T22:50:52.937Z,99716.50
2023-04-15T22:53:24.103Z,99722.03
2023-04-15T22:55:52.034Z,99727.63
2023-04-15T22:58:18.996Z,99714.41
2023-04-15T23:00:46.252Z,99718.53
2023-04-15T23:03:13.399Z,99715.25
2023-04-15T23:05:41.444Z,99722.88
2023-04-15T23:08:08.701Z,99723.28
2023-04-15T23:10:35.755Z,99723.03
2023-04-15T23:13:02.825Z,99730.44
2023-04-15T23:15:29.887Z,99731.00
2023-04-15T23:17:56.866Z,99732.50
2023-04-15T23:20:23.833Z,99735.81
2023-04-15T23:22:51.030Z,99736.59
2023-04-15T23:25:22.404Z,99737.88
2023-04-15T23:27:49.273Z,99732.94
2023-04-15T23:30:16.264Z,99736.88
2023-04-15T23:32:43.600Z,99747.59
2023-04-15T23:35:10.680Z,99744.28
2023-04-15T23:37:37.614Z,99734.19
2023-04-15T23:40:11.613Z,99740.75
2023-04-15T23:42:38.566Z,99734.56
2023-04-15T23:45:05.980Z,99734.38
2023-04-15T23:47:33.290Z,99735.19
2023-04-15T23:50:00.291Z,99730.06
2023-04-15T23:52:27.335Z,99741.22
2023-04-15T23:54:54.368Z,99747.63
2023-04-15T23:57:21.526Z,99742.88
2023-04-15T23:59:48.668Z,99761.03
